This is the latest recevied weather packets stored in our database for station/object LRAR. If no packets are shown the sender has not sent any weather packets the latest 10 day(s).
| Time | Temp. | Humidity | Pressure | Rain* | Wind** | Luminosity | Snow |
|---|---|---|---|---|---|---|---|
| 1777019619 | 16.11° C | 42% | 1015 hPa | - | - | - | - |
| 1777018716 | 15° C | 48% | 1015 hPa | - | - | - | - |
| 1777017818 | 15° C | 48% | 1015 hPa | - | - | - | - |
| 1777016915 | 15° C | 48% | 1015 hPa | - | - | - | - |
| 1777016018 | 15° C | 48% | 1015 hPa | - | - | - | - |
| 1777015141 | 13.89° C | 51% | 1015 hPa | - | - | - | - |
| 1777014235 | 12.78° C | 55% | 1015 hPa | - | - | - | - |
| 1777013318 | 12.78° C | 55% | 1015 hPa | - | - | - | - |
| 1777012418 | 12.78° C | 55% | 1015 hPa | - | - | - | - |
| 1777011518 | 11.11° C | 62% | 1015 hPa | - | - | - | - |
| 1777010618 | 11.11° C | 62% | 1015 hPa | - | - | - | - |
| 1777009719 | 7.78° C | 71% | 1015 hPa | - | - | - | - |
| 1777008819 | 7.78° C | 71% | 1015 hPa | - | - | - | - |
| 1777007925 | 6.11° C | 76% | 1015 hPa | - | - | - | - |
| 1777007019 | 6.11° C | 76% | 1015 hPa | - | - | - | - |
| 1777006118 | 3.89° C | 81% | 1014 hPa | - | - | - | - |
| 1777005219 | 3.89° C | 81% | 1014 hPa | - | - | - | - |
| 1777004318 | 2.78° C | 81% | 1014 hPa | - | - | - | - |
| 1777003418 | 2.78° C | 81% | 1014 hPa | - | - | - | - |
| 1777002519 | 2.78° C | 75% | 1014 hPa | - | - | - | - |
| 1777001619 | 2.78° C | 75% | 1014 hPa | - | - | - | - |
| 1777000718 | 2.78° C | 81% | 1013 hPa | - | - | - | - |
| 1776999818 | 2.78° C | 81% | 1013 hPa | - | - | - | - |
| 1776998919 | 5° C | 70% | 1013 hPa | - | - | - | - |
| 1776998018 | 5° C | 70% | 1013 hPa | - | - | - | - |
* Rain since midnight (hover to see other rain measurements)
** Current wind speed in m/s (hover to see current wind gust speed)